Time;durP1;ratioP1;P1;durP2;ratioP2;P2;SDS_P1;SDS_P2;PMS_P1;PMS_P2;Temp;Humidity;BMP_temperature;BMP_pressure;BME280_temperature;BME280_humidity;BME280_pressure;Samples;Min_cycle;Max_cycle;Signal;HPM_P1;HPM_P2
2022/08/05 00:00:55;;;;;;;6.40;4.80;;;;;;;21.67;49.54;100236.39;106126;1271;138086;-66
2022/08/05 00:03:48;;;;;;;6.00;4.80;;;;;;;21.62;49.64;100236.11;106808;1271;112319;-65
2022/08/05 00:06:20;;;;;;;10.40;4.90;;;;;;;21.58;49.93;100232.52;107775;1271;108765;-66
2022/08/05 00:09:04;;;;;;;12.00;5.20;;;;;;;21.54;50.08;100234.91;107591;1273;138013;-66
2022/08/05 00:11:44;;;;;;;8.40;4.80;;;;;;;21.51;50.05;100236.64;107751;1271;95891;-65
2022/08/05 00:14:20;;;;;;;7.40;5.00;;;;;;;21.46;50.33;100234.69;107620;1273;137773;-65
2022/08/05 00:16:59;;;;;;;11.00;5.10;;;;;;;21.43;50.46;100234.06;106510;1272;112666;-65
2022/08/05 00:19:33;;;;;;;9.00;5.00;;;;;;;21.40;50.37;100232.35;106089;1271;138467;-64
2022/08/05 00:22:25;;;;;;;6.10;5.10;;;;;;;21.37;50.76;100232.76;107129;1271;111142;-65
2022/08/05 00:24:58;;;;;;;10.60;5.20;;;;;;;21.34;50.76;100232.60;106006;1271;138101;-66
2022/08/05 00:27:32;;;;;;;12.70;5.30;;;;;;;21.31;51.07;100234.98;106216;1270;98263;-65
2022/08/05 00:30:09;;;;;;;7.10;5.20;;;;;;;21.28;50.94;100237.70;106363;1271;112728;-65
2022/08/05 00:32:42;;;;;;;6.70;5.30;;;;;;;21.24;51.28;100235.90;107649;1270;138449;-65
2022/08/05 00:35:18;;;;;;;5.80;5.10;;;;;;;21.18;51.48;100232.39;106658;1271;109062;-65
2022/08/05 00:37:51;;;;;;;6.30;5.60;;;;;;;21.14;51.67;100234.69;107677;1271;138096;-65
2022/08/05 00:40:27;;;;;;;11.10;5.90;;;;;;;21.09;51.77;100232.70;107374;1270;97804;-66
2022/08/05 00:43:02;;;;;;;9.80;6.20;;;;;;;21.05;51.89;100230.56;106167;1271;138334;-66
2022/08/05 00:45:38;;;;;;;9.60;5.60;;;;;;;21.02;51.94;100232.39;106240;1271;109071;-65
2022/08/05 00:48:17;;;;;;;8.80;5.10;;;;;;;20.99;52.04;100232.94;106239;1271;107692;-65
2022/08/05 00:51:00;;;;;;;;;;;;;;;20.95;52.40;100229.21;107627;1273;139126;-66
2022/08/05 00:53:53;;;;;;;9.10;5.40;;;;;;;20.91;52.46;100231.30;107737;1272;96141;-66
2022/08/05 00:56:34;;;;;;;10.00;5.50;;;;;;;20.86;52.86;100220.89;107639;1271;137787;-67
2022/08/05 00:59:07;;;;;;;10.20;5.80;;;;;;;20.85;52.68;100222.06;106771;1272;108027;-65
2022/08/05 01:01:41;;;;;;;11.90;6.10;;;;;;;20.83;52.96;100223.26;107461;1273;138626;-65
2022/08/05 01:04:20;;;;;;;12.10;5.20;;;;;;;20.80;53.01;100223.42;107042;1271;96765;-66
2022/08/05 01:07:01;;;;;;;9.30;5.60;;;;;;;20.78;53.26;100219.52;106114;1272;138124;-65
2022/08/05 01:09:36;;;;;;;6.90;5.20;;;;;;;20.77;53.48;100218.02;106197;1271;112715;-66
2022/08/05 01:12:12;;;;;;;8.50;5.10;;;;;;;20.75;53.46;100216.92;107723;1271;107800;-66
2022/08/05 01:14:57;;;;;;;9.40;5.60;;;;;;;20.72;53.64;100212.92;107613;1271;138544;-66
2022/08/05 01:17:40;;;;;;;8.90;5.30;;;;;;;20.70;53.65;100212.53;107775;1270;95817;-65
2022/08/05 01:20:26;;;;;;;8.20;5.50;;;;;;;20.68;54.02;100209.69;107687;1270;137741;-66
2022/08/05 01:23:13;;;;;;;8.70;5.40;;;;;;;20.67;53.99;100210.48;107751;1271;112511;-65
2022/08/05 01:26:07;;;;;;;7.30;5.20;;;;;;;20.66;54.10;100205.11;107617;1271;137793;-65
2022/08/05 01:28:46;;;;;;;7.00;5.10;;;;;;;20.65;54.30;100205.35;107751;1270;107962;-66
2022/08/05 01:31:27;;;;;;;8.80;5.10;;;;;;;20.65;54.26;100203.42;107640;1272;138164;-65
2022/08/05 01:34:04;;;;;;;11.50;5.10;;;;;;;20.64;54.33;100201.51;107268;1273;96955;-65
2022/08/05 01:36:44;;;;;;;9.60;5.20;;;;;;;20.63;54.54;100198.75;106670;1272;112546;-65
2022/08/05 01:39:19;;;;;;;8.00;5.40;;;;;;;20.62;54.36;100197.73;106054;1273;137917;-65
2022/08/05 01:42:16;;;;;;;5.80;4.70;;;;;;;20.61;54.51;100196.10;106129;1271;108860;-65
2022/08/05 01:44:49;;;;;;;6.60;5.20;;;;;;;20.59;54.79;100199.27;106231;1271;138560;-66
2022/08/05 01:47:24;;;;;;;;;;;;;;;20.57;54.87;100201.89;107731;1272;95664;-65
2022/08/05 01:50:14;;;;;;;7.80;5.40;;;;;;;20.54;55.15;100199.14;107534;1273;126137;-66
2022/08/05 01:52:50;;;;;;;8.50;5.10;;;;;;;20.50;55.18;100201.66;107253;1271;108868;-66
2022/08/05 01:55:27;;;;;;;5.90;5.20;;;;;;;20.48;55.18;100199.67;106198;1271;138742;-65
2022/08/05 01:58:04;;;;;;;8.60;4.90;;;;;;;20.46;55.37;100195.77;106104;1273;97843;-67
2022/08/05 02:00:59;;;;;;;9.30;5.10;;;;;;;20.44;55.47;100193.06;106223;1271;140334;-66
2022/08/05 02:03:36;;;;;;;7.30;5.40;;;;;;;20.43;55.66;100194.98;106183;1273;112372;-66
2022/08/05 02:06:12;;;;;;;6.80;4.80;;;;;;;20.39;55.63;100193.09;106658;1272;108840;-66
2022/08/05 02:09:05;;;;;;;7.60;5.20;;;;;;;20.36;55.81;100189.98;107629;1272;138882;-66
2022/08/05 02:11:48;;;;;;;8.30;4.90;;;;;;;20.33;55.99;100183.65;106754;1272;97982;-67
2022/08/05 02:14:30;;;;;;;7.90;5.10;;;;;;;20.31;56.14;100186.14;107508;1273;138543;-67
2022/08/05 02:17:11;;;;;;;9.00;5.00;;;;;;;20.29;56.05;100185.88;107686;1273;112433;-66
2022/08/05 02:20:11;;;;;;;7.30;5.00;;;;;;;20.28;56.32;100185.08;106001;1273;138573;-67
2022/08/05 02:22:46;;;;;;;8.10;5.00;;;;;;;20.26;56.48;100179.55;107703;1271;108906;-66
2022/08/05 02:25:24;;;;;;;6.30;4.90;;;;;;;20.25;56.50;100179.81;106244;1273;139006;-66
2022/08/05 02:28:06;;;;;;;12.60;5.20;;;;;;;20.24;56.66;100176.92;106129;1273;97846;-66
2022/08/05 02:30:44;;;;;;;7.00;5.60;;;;;;;20.22;56.77;100178.64;106128;1273;112244;-66
2022/08/05 02:33:26;;;;;;;9.50;4.90;;;;;;;20.21;56.95;100172.19;107657;1273;108779;-66
2022/08/05 02:36:14;;;;;;;8.50;5.30;;;;;;;20.19;56.89;100172.64;106104;1273;109089;-66
2022/08/05 02:38:50;;;;;;;7.80;4.90;;;;;;;20.18;57.17;100168.52;107607;1272;138642;-66
2022/08/05 02:41:26;;;;;;;6.00;5.10;;;;;;;20.16;57.24;100168.31;106440;1272;97875;-66
2022/08/05 02:44:10;;;;;;;13.80;5.80;;;;;;;20.14;57.37;100171.99;105973;1273;139453;-65
2022/08/05 02:46:46;;;;;;;5.90;5.00;;;;;;;20.12;57.48;100172.66;106105;1272;109090;-66
2022/08/05 02:49:34;;;;;;;8.40;5.80;;;;;;;20.12;57.35;100168.66;107515;1271;139883;-66
2022/08/05 02:52:14;;;;;;;8.70;5.80;;;;;;;20.10;57.68;100164.52;107677;1272;95982;-66
2022/08/05 02:55:03;;;;;;;10.90;5.80;;;;;;;20.08;57.69;100165.69;107492;1273;141399;-65
2022/08/05 02:57:42;;;;;;;10.50;5.80;;;;;;;20.07;57.84;100165.61;107735;1273;113003;-65
2022/08/05 03:00:36;;;;;;;8.40;5.80;;;;;;;20.06;57.99;100164.45;107386;1272;107791;-65
2022/08/05 03:03:10;;;;;;;7.50;5.70;;;;;;;20.05;58.13;100159.02;105986;1273;138385;-65
2022/08/05 03:05:43;;;;;;;8.10;6.20;;;;;;;20.04;58.07;100156.48;105901;1272;97945;-65
2022/08/05 03:08:37;;;;;;;7.00;5.90;;;;;;;20.04;58.20;100155.98;106061;1271;138575;-66
2022/08/05 03:11:21;;;;;;;13.50;6.30;;;;;;;20.03;58.22;100153.40;107727;1271;111358;-65
2022/08/05 03:14:13;;;;;;;7.70;6.20;;;;;;;20.02;58.50;100153.14;107662;1270;138922;-65
2022/08/05 03:16:46;;;;;;;9.50;6.30;;;;;;;20.01;58.39;100150.76;107738;1270;109027;-66
2022/08/05 03:19:19;;;;;;;13.20;6.90;;;;;;;20.00;58.41;100149.23;107634;1271;138912;-66
2022/08/05 03:22:06;;;;;;;10.60;6.60;;;;;;;20.00;58.63;100149.41;107738;1272;96214;-66
2022/08/05 03:24:51;;;;;;;10.00;7.10;;;;;;;19.98;58.62;100146.90;107717;1272;113543;-66
2022/08/05 03:27:24;;;;;;;7.70;6.90;;;;;;;19.98;58.77;100149.52;107723;1273;107843;-66
2022/08/05 03:30:17;;;;;;;8.90;7.00;;;;;;;19.98;58.78;100147.06;107757;1271;108731;-66
2022/08/05 03:32:51;;;;;;;8.60;7.00;;;;;;;19.99;58.82;100145.77;107553;1271;138928;-65
2022/08/05 03:35:24;;;;;;;11.20;7.80;;;;;;;20.00;58.90;100145.51;107057;1271;96472;-67
2022/08/05 03:37:58;;;;;;;10.20;7.50;;;;;;;20.01;58.97;100144.02;106104;1271;139289;-66
2022/08/05 03:40:30;;;;;;;9.90;7.60;;;;;;;20.02;59.12;100147.13;107764;1271;108937;-66
2022/08/05 03:43:03;;;;;;;13.60;8.20;;;;;;;20.03;59.14;100146.12;107583;1272;138792;-65
2022/08/05 03:45:55;;;;;;;11.60;7.70;;;;;;;20.05;59.03;100147.58;107768;1271;96168;-66
2022/08/05 03:48:30;;;;;;;10.10;8.50;;;;;;;20.07;59.11;100149.94;107699;1272;96129;-66
2022/08/05 03:51:13;;;;;;;10.90;8.10;;;;;;;20.09;59.32;100149.44;107735;1271;138620;-66
2022/08/05 03:54:09;;;;;;;9.40;7.70;;;;;;;20.11;59.36;100143.46;107712;1271;108986;-66
2022/08/05 03:57:05;;;;;;;11.90;8.10;;;;;;;20.12;59.32;100143.75;107594;1273;138775;-66
2022/08/05 03:59:53;;;;;;;9.90;8.20;;;;;;;20.14;59.35;100144.29;106990;1271;97834;-66
2022/08/05 04:02:29;;;;;;;10.00;8.60;;;;;;;20.15;59.39;100140.83;106102;1271;138378;-66
2022/08/05 04:05:17;;;;;;;9.60;8.60;;;;;;;20.18;59.41;100144.86;107126;1271;113070;-66
2022/08/05 04:07:50;;;;;;;15.40;8.60;;;;;;;20.20;59.40;100143.33;106296;1271;138721;-66
2022/08/05 04:10:30;;;;;;;10.20;9.10;;;;;;;20.21;59.49;100144.10;106972;1271;108798;-64
2022/08/05 04:13:09;;;;;;;11.10;8.60;;;;;;;20.23;59.44;100143.40;106648;1273;139752;-67
2022/08/05 04:15:41;;;;;;;12.00;8.10;;;;;;;20.26;59.60;100141.99;107512;1271;97699;-68
2022/08/05 04:18:34;;;;;;;9.70;8.70;;;;;;;20.30;59.67;100145.05;106755;1271;112415;-67
2022/08/05 04:21:07;;;;;;;8.80;7.80;;;;;;;20.34;59.59;100149.70;106481;1271;139116;-66
2022/08/05 04:23:42;;;;;;;9.40;8.40;;;;;;;20.37;59.45;100148.89;107762;1270;108853;-67
2022/08/05 04:26:34;;;;;;;11.70;8.00;;;;;;;20.41;59.51;100148.48;106295;1272;138621;-65
2022/08/05 04:29:07;;;;;;;10.80;8.60;;;;;;;20.44;59.58;100147.85;107814;1271;96115;-66
2022/08/05 04:31:40;;;;;;;13.30;8.90;;;;;;;20.47;59.52;100145.00;107706;1271;138641;-67
2022/08/05 04:34:13;;;;;;;14.40;9.20;;;;;;;20.51;59.84;100150.38;107574;1271;108850;-66
2022/08/05 04:37:04;;;;;;;11.30;8.50;;;;;;;20.56;59.52;100144.86;106534;1271;139086;-65
2022/08/05 04:39:36;;;;;;;10.60;8.40;;;;;;;20.62;59.52;100145.11;107792;1271;96176;-67
2022/08/05 04:42:10;;;;;;;11.50;8.90;;;;;;;20.69;59.54;100146.23;107225;1271;97835;-66
2022/08/05 04:44:42;;;;;;;11.10;8.30;;;;;;;20.75;59.37;100145.35;106290;1271;138607;-67
2022/08/05 04:47:15;;;;;;;9.60;8.60;;;;;;;20.83;59.50;100141.44;107747;1271;107793;-67
2022/08/05 04:49:51;;;;;;;12.50;9.00;;;;;;;20.92;59.37;100139.48;107566;1271;138985;-66
2022/08/05 04:52:42;;;;;;;11.50;8.50;;;;;;;21.01;59.21;100140.37;106121;1272;97869;-66
2022/08/05 04:55:15;;;;;;;10.60;8.50;;;;;;;21.09;59.30;100141.13;107256;1271;139015;-66
2022/08/05 04:58:05;;;;;;;11.00;8.70;;;;;;;21.22;59.09;100140.38;107741;1271;113246;-66
2022/08/05 05:00:43;;;;;;;12.60;8.70;;;;;;;21.33;59.01;100143.55;107257;1271;108847;-66
2022/08/05 05:03:21;;;;;;;9.60;8.60;;;;;;;21.47;58.74;100139.81;106139;1271;108806;-66
2022/08/05 05:05:53;;;;;;;12.60;8.50;;;;;;;21.63;58.75;100138.48;106082;1271;97839;-65
2022/08/05 05:08:46;;;;;;;11.70;7.90;;;;;;;21.87;58.35;100139.48;106124;1271;140221;-66
2022/08/05 05:11:21;;;;;;;12.80;7.80;;;;;;;22.09;58.05;100142.92;106241;1271;112561;-66
2022/08/05 05:14:13;;;;;;;9.60;7.30;;;;;;;22.54;57.77;100145.95;106306;1271;138756;-67
2022/08/05 05:16:47;;;;;;;9.70;7.80;;;;;;;23.62;56.97;100144.79;106135;1271;108071;-67
2022/08/05 05:19:21;;;;;;;11.10;7.40;;;;;;;24.99;54.92;100145.29;106469;1271;138047;-66
2022/08/05 05:21:58;;;;;;;11.00;7.40;;;;;;;26.62;52.86;100138.89;106238;1271;97926;-67
2022/08/05 05:24:50;;;;;;;8.70;6.90;;;;;;;28.36;50.22;100138.54;107767;1273;112445;-67
2022/08/05 05:27:32;;;;;;;11.70;6.70;;;;;;;29.81;47.64;100138.45;107751;1271;107230;-67
2022/08/05 05:30:17;;;;;;;12.60;6.40;;;;;;;31.07;44.85;100141.71;107777;1271;108909;-66
2022/08/05 05:33:05;;;;;;;9.30;6.40;;;;;;;32.15;42.97;100145.39;107705;1271;138057;-67
2022/08/05 05:35:48;;;;;;;11.70;6.30;;;;;;;33.29;41.22;100151.23;106996;1272;97825;-67
2022/08/05 05:38:22;;;;;;;9.60;6.00;;;;;;;33.89;39.23;100144.27;106046;1272;138004;-65
2022/08/05 05:40:58;;;;;;;11.30;6.00;;;;;;;34.42;38.58;100146.20;106162;1271;108622;-68
2022/08/05 05:43:31;;;;;;;11.90;6.30;;;;;;;35.22;37.31;100144.30;106697;1272;138382;-66
2022/08/05 05:46:23;;;;;;;13.80;6.20;;;;;;;36.32;36.04;100140.55;106268;1271;97965;-64
2022/08/05 05:48:56;;;;;;;13.80;6.00;;;;;;;37.33;34.59;100145.96;106157;1271;138094;-64
2022/08/05 05:51:28;;;;;;;7.70;5.80;;;;;;;38.17;33.16;100141.73;106099;1271;111474;-66
2022/08/05 05:54:21;;;;;;;9.00;5.10;;;;;;;39.11;31.89;100147.65;107756;1273;108923;-67
2022/08/05 05:57:13;;;;;;;10.10;5.50;;;;;;;39.78;30.29;100147.05;107632;1271;137724;-66
2022/08/05 05:59:50;;;;;;;9.30;5.80;;;;;;;39.95;28.74;100144.09;107705;1271;96072;-66
2022/08/05 06:02:23;;;;;;;8.10;4.80;;;;;;;39.87;28.26;100137.86;107654;1271;137795;-66
2022/08/05 06:05:11;;;;;;;8.80;5.00;;;;;;;39.87;27.17;100139.39;107703;1271;112651;-67
2022/08/05 06:07:48;;;;;;;9.00;4.70;;;;;;;39.78;27.44;100137.13;106319;1272;138852;-67
2022/08/05 06:10:33;;;;;;;10.50;4.80;;;;;;;40.16;27.29;100135.50;106240;1271;108871;-65
2022/08/05 06:13:08;;;;;;;15.00;4.90;;;;;;;40.24;26.41;100133.97;106135;1271;138821;-65
2022/08/05 06:15:40;;;;;;;10.50;4.80;;;;;;;40.37;26.67;100133.55;106245;1271;97835;-64
2022/08/05 06:18:33;;;;;;;9.90;4.20;;;;;;;40.71;25.93;100133.73;106192;1271;112775;-65
2022/08/05 06:21:10;;;;;;;8.30;4.30;;;;;;;40.72;25.46;100136.59;107617;1272;137833;-67
2022/08/05 06:23:49;;;;;;;10.80;3.90;;;;;;;40.86;25.36;100136.17;107673;1271;108775;-66
2022/08/05 06:26:22;;;;;;;6.40;4.30;;;;;;;41.11;25.45;100131.63;107638;1271;139213;-67
2022/08/05 06:28:56;;;;;;;6.60;4.10;;;;;;;41.60;25.11;100131.54;107775;1271;95749;-66
2022/08/05 06:31:28;;;;;;;8.10;4.40;;;;;;;41.77;24.57;100135.67;106182;1271;138003;-65
2022/08/05 06:34:05;;;;;;;8.40;4.20;;;;;;;42.02;24.24;100137.92;106162;1271;108841;-65
2022/08/05 06:36:40;;;;;;;9.80;4.10;;;;;;;42.26;23.77;100136.69;106202;1271;108969;-63
2022/08/05 06:39:29;;;;;;;7.40;4.00;;;;;;;41.94;23.20;100135.52;106234;1271;97836;-64
2022/08/05 06:42:03;;;;;;;9.50;3.60;;;;;;;41.54;23.52;100128.59;106218;1271;97953;-65
2022/08/05 06:44:35;;;;;;;8.40;4.10;;;;;;;41.60;23.39;100134.23;107550;1271;137753;-66
2022/08/05 06:47:09;;;;;;;7.90;3.70;;;;;;;41.44;23.52;100126.10;107828;1271;108789;-66
2022/08/05 06:50:01;;;;;;;8.90;3.20;;;;;;;41.44;22.75;100135.42;107721;1271;137999;-66
2022/08/05 06:52:36;;;;;;;4.10;3.20;;;;;;;41.22;23.36;100125.33;107696;1271;96507;-66
2022/08/05 06:55:12;;;;;;;5.40;3.40;;;;;;;41.37;22.90;100131.78;106082;1271;138195;-66
2022/08/05 06:57:46;;;;;;;7.20;3.20;;;;;;;40.88;22.32;100126.68;107825;1270;112545;-66
2022/08/05 07:00:34;;;;;;;8.60;3.00;;;;;;;40.60;23.57;100114.48;106099;1273;108835;-66
2022/08/05 07:03:12;;;;;;;10.00;3.50;;;;;;;41.14;23.09;100121.16;106089;1273;138307;-66
2022/08/05 07:05:47;;;;;;;9.90;3.30;;;;;;;40.97;23.25;100112.73;106176;1271;97813;-67
2022/08/05 07:08:21;;;;;;;6.60;3.40;;;;;;;41.39;23.60;100114.71;106063;1271;137923;-66
2022/08/05 07:10:55;;;;;;;10.60;3.00;;;;;;;42.19;23.16;100122.53;107427;1272;139842;-66
2022/08/05 07:16:49;;;;;;;5.30;2.70;;;;;;;42.11;21.85;100129.85;106070;1271;138631;-65
2022/08/05 07:19:41;;;;;;;6.60;3.20;;;;;;;41.42;22.19;100124.34;107711;1272;96050;-66
2022/08/05 07:22:33;;;;;;;6.00;3.20;;;;;;;41.00;22.46;100117.79;107638;1271;137938;-66
2022/08/05 07:25:07;;;;;;;5.10;2.90;;;;;;;40.71;22.69;100116.90;106750;1271;112469;-65
2022/08/05 07:27:56;;;;;;;8.40;3.00;;;;;;;40.84;23.29;100111.48;106070;1271;138358;-66
2022/08/05 07:30:39;;;;;;;3.80;2.40;;;;;;;41.19;23.06;100113.30;107687;1272;108713;-65
2022/08/05 07:33:12;;;;;;;7.10;3.10;;;;;;;41.43;22.93;100114.89;106542;1273;97928;-66
2022/08/05 07:35:49;;;;;;;5.90;2.80;;;;;;;41.56;22.79;100112.52;106769;1271;97934;-66
2022/08/05 07:38:41;;;;;;;7.90;3.30;;;;;;;41.57;22.23;100119.16;106205;1271;112529;-66
2022/08/05 07:41:18;;;;;;;6.40;2.80;;;;;;;41.21;22.03;100125.64;107538;1272;137873;-65
2022/08/05 07:44:10;;;;;;;7.00;2.80;;;;;;;41.12;22.24;100117.80;107025;1273;108636;-66
2022/08/05 07:46:50;;;;;;;6.90;3.10;;;;;;;40.99;22.38;100116.23;106047;1271;138179;-66
2022/08/05 07:49:22;;;;;;;3.10;2.40;;;;;;;40.88;22.30;100118.65;106161;1274;97724;-72
2022/08/05 07:51:54;;;;;;;7.60;2.80;;;;;;;40.72;22.86;100117.90;105987;1271;138292;-68
2022/08/05 07:54:27;;;;;;;5.10;2.90;;;;;;;40.97;22.87;100114.63;106159;1274;108848;-67
2022/08/05 07:57:03;;;;;;;5.40;3.00;;;;;;;41.14;22.78;100114.05;106071;1274;108803;-65
2022/08/05 07:59:55;;;;;;;8.90;3.00;;;;;;;41.23;22.63;100114.77;106287;1271;97820;-65
2022/08/05 08:02:29;;;;;;;5.00;2.70;;;;;;;40.96;22.34;100106.84;106235;1269;97794;-66
2022/08/05 08:05:21;;;;;;;5.10;2.60;;;;;;;40.96;22.79;100106.58;107601;1271;137814;-66
2022/08/05 08:07:57;;;;;;;4.00;3.00;;;;;;;40.48;22.31;100109.75;107739;1271;108811;-66
2022/08/05 08:10:31;;;;;;;7.00;2.80;;;;;;;40.00;23.44;100111.67;107659;1271;138463;-66
2022/08/05 08:13:03;;;;;;;6.20;2.80;;;;;;;40.09;23.60;100101.92;107795;1271;96006;-66
2022/08/05 08:15:36;;;;;;;3.40;2.70;;;;;;;40.45;23.34;100115.16;107668;1271;137815;-67
2022/08/05 08:18:28;;;;;;;9.20;2.80;;;;;;;40.55;23.13;100115.55;107800;1271;112085;-67
2022/08/05 08:21:00;;;;;;;7.10;2.70;;;;;;;40.52;23.47;100110.65;107680;1273;109315;-76
2022/08/05 08:23:40;;;;;;;5.00;2.70;;;;;;;40.64;23.24;100104.00;107690;1271;109667;-75
2022/08/05 08:26:33;;;;;;;5.60;2.70;;;;;;;40.90;23.50;100101.61;107723;1271;96162;-75
2022/08/05 08:29:05;;;;;;;6.90;2.50;;;;;;;41.19;23.37;100101.36;107582;1271;138281;-75
2022/08/05 08:31:57;;;;;;;11.20;2.90;;;;;;;41.53;22.73;100100.88;107709;1271;111489;-75
2022/08/05 08:34:29;;;;;;;4.00;2.60;;;;;;;41.60;23.03;100101.11;107627;1271;139398;-77
2022/08/05 08:37:05;;;;;;;4.70;2.70;;;;;;;41.45;22.37;100109.09;107710;1271;107522;-75
2022/08/05 08:39:37;;;;;;;6.60;2.70;;;;;;;41.01;22.48;100110.91;107681;1270;138323;-77
2022/08/05 08:42:21;;;;;;;5.10;2.70;;;;;;;40.74;22.71;100102.23;106266;1271;97941;-75
2022/08/05 08:45:15;;;;;;;11.40;3.20;;;;;;;40.41;22.53;100110.06;106062;1271;138052;-73
2022/08/05 08:48:01;;;;;;;6.20;2.80;;;;;;;39.74;22.87;100108.49;106227;1273;108684;-75
2022/08/05 08:50:54;;;;;;;9.60;3.10;;;;;;;39.46;23.50;100104.92;107241;1270;109048;-75
2022/08/05 08:53:46;;;;;;;3.50;2.40;;;;;;;39.42;24.00;100099.80;107021;1271;98363;-76
2022/08/05 08:56:19;;;;;;;7.70;2.80;;;;;;;39.51;24.25;100094.27;106229;1271;97815;-76
2022/08/05 08:58:53;;;;;;;4.60;2.60;;;;;;;39.54;24.15;100093.76;106063;1271;137817;-75
2022/08/05 09:01:25;;;;;;;9.30;2.90;;;;;;;39.58;24.52;100093.30;106348;1271;109840;-74
2022/08/05 09:03:59;;;;;;;4.10;2.70;;;;;;;39.70;24.07;100095.48;106127;1271;137998;-76
2022/08/05 09:06:33;;;;;;;3.60;2.20;;;;;;;39.79;24.46;100087.13;106167;1271;97853;-77
2022/08/05 09:09:07;;;;;;;5.10;3.00;;;;;;;39.81;24.26;100090.07;106191;1271;97853;-75
2022/08/05 09:11:40;;;;;;;7.10;2.40;;;;;;;39.65;23.93;100088.70;106163;1272;112463;-75
2022/08/05 09:14:25;;;;;;;5.00;3.00;;;;;;;39.43;24.14;100092.85;107492;1271;106115;-75
2022/08/05 09:17:17;;;;;;;12.30;3.10;;;;;;;39.18;24.23;100093.14;107579;1271;137885;-76
2022/08/05 09:20:12;;;;;;;5.80;2.60;;;;;;;38.71;23.96;100091.80;107741;1271;96057;-76
2022/08/05 09:23:12;;;;;;;4.80;2.70;;;;;;;38.25;24.45;100098.00;107684;1271;138265;-77
2022/08/05 09:25:53;;;;;;;4.90;3.10;;;;;;;37.49;24.88;100105.95;106282;1271;111330;-75
2022/08/05 09:28:36;;;;;;;11.70;2.80;;;;;;;37.01;25.93;100091.25;107523;1272;138818;-76
2022/08/05 09:31:11;;;;;;;5.80;2.90;;;;;;;36.74;25.70;100089.91;106159;1273;110462;-76
2022/08/05 09:34:05;;;;;;;7.50;2.50;;;;;;;36.61;26.32;100084.30;106098;1270;137973;-77
2022/08/05 09:36:42;;;;;;;9.20;2.80;;;;;;;36.88;26.67;100077.67;106258;1272;98246;-76
2022/08/05 09:39:29;;;;;;;8.70;2.20;;;;;;;37.10;26.13;100070.80;107642;1272;138019;-76
2022/08/05 09:42:18;;;;;;;5.90;2.50;;;;;;;37.00;25.83;100072.02;106523;1272;106794;-76
2022/08/05 09:45:08;;;;;;;5.90;2.50;;;;;;;37.01;25.89;100070.77;106209;1271;108003;-76
2022/08/05 09:48:00;;;;;;;5.80;2.70;;;;;;;37.27;26.16;100071.68;106196;1270;97839;-76
2022/08/05 09:50:39;;;;;;;4.10;2.40;;;;;;;37.34;25.76;100080.23;106200;1273;97739;-76
2022/08/05 09:53:16;;;;;;;4.50;2.50;;;;;;;37.04;25.82;100074.32;106070;1271;137615;-76
2022/08/05 09:56:08;;;;;;;5.50;2.60;;;;;;;36.94;25.82;100072.96;106210;1271;107811;-76
2022/08/05 09:58:57;;;;;;;5.90;2.50;;;;;;;36.66;26.40;100060.40;106006;1271;137796;-76
2022/08/05 10:01:32;;;;;;;10.40;2.60;;;;;;;36.61;26.44;100063.40;106172;1270;97845;-75
2022/08/05 10:04:07;;;;;;;4.00;2.90;;;;;;;36.41;26.57;100063.66;106130;1271;137906;-78
2022/08/05 10:06:53;;;;;;;6.20;2.70;;;;;;;36.30;27.08;100059.36;106056;1271;110949;-77
2022/08/05 10:09:30;;;;;;;6.70;2.80;;;;;;;36.58;27.26;100058.08;106026;1271;138086;-76
2022/08/05 10:12:16;;;;;;;3.80;2.30;;;;;;;36.62;26.67;100060.50;106074;1272;108862;-77
2022/08/05 10:15:18;;;;;;;5.30;2.30;;;;;;;36.59;27.01;100058.22;107728;1271;97448;-76
2022/08/05 10:18:14;;;;;;;6.60;2.70;;;;;;;36.63;26.87;100045.41;107676;1271;95989;-76
2022/08/05 10:20:51;;;;;;;6.00;2.40;;;;;;;36.39;27.04;100042.16;107680;1271;112690;-76
2022/08/05 10:23:26;;;;;;;5.90;2.50;;;;;;;36.07;26.89;100038.75;106033;1273;138098;-74
2022/08/05 10:26:19;;;;;;;3.50;2.30;;;;;;;35.94;27.31;100036.48;106198;1271;108886;-74
2022/08/05 10:29:03;;;;;;;8.60;2.50;;;;;;;35.69;27.25;100030.23;106012;1271;137872;-76
2022/08/05 10:31:38;;;;;;;4.70;2.90;;;;;;;35.55;27.78;100018.36;106152;1272;97806;-68
2022/08/05 10:34:31;;;;;;;4.70;2.60;;;;;;;35.47;28.07;100019.86;106540;1271;137676;-75
2022/08/05 10:37:03;;;;;;;6.00;2.70;;;;;;;35.28;28.52;100035.04;107742;1271;108892;-76
2022/08/05 10:39:39;;;;;;;7.10;2.70;;;;;;;35.23;28.55;100027.17;107148;1271;138441;-76
2022/08/05 10:42:37;;;;;;;7.80;2.90;;;;;;;35.26;28.30;100025.49;106133;1271;97904;-75
2022/08/05 10:45:16;;;;;;;6.60;2.40;;;;;;;35.18;28.39;100021.85;105987;1272;138098;-75
2022/08/05 10:48:19;;;;;;;;;;;;;;;35.17;28.59;100025.02;106203;1271;111369;-76
2022/08/05 10:51:09;;;;;;;4.80;3.20;;;;;;;35.25;28.86;100027.88;106230;1272;109208;-76
2022/08/05 10:53:58;;;;;;;3.60;2.50;;;;;;;35.29;28.55;100028.44;106130;1272;108951;-73
2022/08/05 10:56:54;;;;;;;7.60;3.00;;;;;;;35.21;28.62;100021.17;106092;1273;98756;-75
2022/08/05 10:59:29;;;;;;;5.70;2.90;;;;;;;34.97;28.63;100010.09;106296;1272;138095;-73
2022/08/05 11:02:24;;;;;;;5.80;3.00;;;;;;;34.86;28.90;100019.95;107630;1271;112522;-74
2022/08/05 11:05:11;;;;;;;4.20;3.10;;;;;;;34.50;29.33;100015.71;106875;1271;138369;-74
2022/08/05 11:08:03;;;;;;;9.00;2.80;;;;;;;34.27;29.22;100012.91;106814;1271;108722;-72
2022/08/05 11:10:55;;;;;;;8.70;3.20;;;;;;;33.90;29.40;100001.78;107537;1271;138646;-74
2022/08/05 11:13:43;;;;;;;10.10;3.30;;;;;;;33.69;30.09;100003.46;106311;1271;97836;-74
2022/08/05 11:16:30;;;;;;;5.70;3.00;;;;;;;33.57;30.29;100004.27;107052;1270;137920;-72
2022/08/05 11:19:26;;;;;;;5.50;3.40;;;;;;;33.49;30.55;100009.70;106070;1273;108839;-72
2022/08/05 11:22:47;;;;;;;8.70;2.90;;;;;;;33.35;30.35;99999.95;105997;1271;138070;-71
2022/08/05 11:25:36;;;;;;;5.50;2.90;;;;;;;33.08;30.49;100000.17;106168;1271;97816;-72
2022/08/05 11:28:48;;;;;;;3.30;2.90;;;;;;;32.93;30.96;100007.45;106004;1271;138175;-72
2022/08/05 11:31:33;;;;;;;5.80;3.30;;;;;;;32.79;31.13;99995.84;106223;1271;111055;-72
2022/08/05 11:34:39;;;;;;;5.10;3.10;;;;;;;32.66;31.21;100001.48;105995;1271;137925;-72
2022/08/05 11:38:00;;;;;;;7.00;2.90;;;;;;;32.64;31.53;100002.67;106143;1272;107783;-71
2022/08/05 11:41:04;;;;;;;9.90;3.30;;;;;;;32.57;31.62;100004.39;105993;1271;138897;-71
2022/08/05 11:43:59;;;;;;;9.30;3.10;;;;;;;32.40;32.09;99999.41;106116;1273;97941;-72
2022/08/05 11:46:40;;;;;;;7.10;3.00;;;;;;;32.41;31.91;99989.77;107588;1271;138047;-71
2022/08/05 11:49:33;;;;;;;4.00;3.30;;;;;;;32.44;32.07;99988.05;106851;1271;108951;-72
2022/08/05 11:52:06;;;;;;;7.10;3.30;;;;;;;32.47;32.24;99983.79;107474;1271;139035;-71
2022/08/05 11:54:42;;;;;;;9.30;3.40;;;;;;;32.52;32.30;99987.08;107618;1271;96402;-71
2022/08/05 11:57:30;;;;;;;5.20;3.30;;;;;;;32.58;32.68;99989.48;107477;1271;137675;-71
2022/08/05 12:00:29;;;;;;;13.30;3.80;;;;;;;32.75;32.55;99983.52;107694;1271;112721;-70
2022/08/05 12:03:17;;;;;;;10.30;3.30;;;;;;;32.66;32.16;99988.36;107762;1271;108900;-72
2022/08/05 12:06:05;;;;;;;4.70;3.30;;;;;;;32.57;32.67;99985.20;106242;1271;108840;-71
2022/08/05 12:08:46;;;;;;;9.00;3.30;;;;;;;32.60;32.56;99987.66;107744;1271;96224;-72
2022/08/05 12:11:24;;;;;;;5.70;3.50;;;;;;;32.61;32.65;99984.96;106341;1271;137638;-72
2022/08/05 12:14:11;;;;;;;8.30;3.60;;;;;;;32.73;32.85;99972.69;106172;1271;112565;-73
2022/08/05 12:16:47;;;;;;;10.10;3.60;;;;;;;32.96;32.66;99979.91;107579;1271;138574;-72
2022/08/05 12:19:21;;;;;;;5.10;3.80;;;;;;;33.01;32.00;99988.16;107707;1271;109607;-73